createdAt,value
2019-02-25T00:01:35.499Z,98898.41
2019-02-25T00:03:10.776Z,98890.72
2019-02-25T00:04:45.818Z,98893.42
2019-02-25T00:06:21.909Z,98892.20
2019-02-25T00:07:57.358Z,98894.05
2019-02-25T00:09:33.678Z,98896.19
2019-02-25T00:11:13.240Z,98894.56
2019-02-25T00:12:48.863Z,98897.63
2019-02-25T00:14:24.167Z,98902.27
2019-02-25T00:16:02.276Z,98903.75
2019-02-25T00:17:37.735Z,98906.59
2019-02-25T00:19:15.498Z,98910.42
2019-02-25T00:20:52.468Z,98908.80
2019-02-25T00:22:30.237Z,98903.73
2019-02-25T00:24:09.369Z,98909.20
2019-02-25T00:25:47.605Z,98902.34
2019-02-25T00:27:23.732Z,98903.33
2019-02-25T00:29:01.259Z,98901.95
2019-02-25T00:30:36.269Z,98901.77
2019-02-25T00:32:12.918Z,98901.30
2019-02-25T00:33:51.498Z,98902.77
2019-02-25T00:35:26.999Z,98902.71
2019-02-25T00:37:10.293Z,98899.37
2019-02-25T00:38:56.407Z,98902.30
2019-02-25T00:40:31.578Z,98904.75
2019-02-25T00:42:06.884Z,98907.02
2019-02-25T00:43:44.630Z,98908.38
2019-02-25T00:45:27.474Z,98910.84
2019-02-25T00:47:02.674Z,98913.33
2019-02-25T00:48:37.757Z,98911.37
2019-02-25T00:50:13.875Z,98910.48
2019-02-25T00:51:53.599Z,98918.04
2019-02-25T00:53:31.567Z,98918.51
2019-02-25T00:55:07.677Z,98915.88
2019-02-25T00:56:44.377Z,98920.95
2019-02-25T00:58:19.781Z,98920.95
2019-02-25T00:59:55.353Z,98916.72
2019-02-25T01:01:30.466Z,98921.94
2019-02-25T01:03:05.518Z,98924.91
2019-02-25T01:04:40.891Z,98915.46
2019-02-25T01:06:20.599Z,98918.48
2019-02-25T01:07:57.158Z,98915.44
2019-02-25T01:09:33.282Z,98913.52
2019-02-25T01:11:11.446Z,98909.88
2019-02-25T01:12:48.165Z,98921.94
2019-02-25T01:14:25.251Z,98918.67
2019-02-25T01:16:02.947Z,98910.23
2019-02-25T01:17:51.058Z,98917.56
2019-02-25T01:19:27.186Z,98919.59
2019-02-25T01:21:02.670Z,98914.57
2019-02-25T01:22:40.205Z,98911.36
2019-02-25T01:24:19.012Z,98914.66
2019-02-25T01:26:05.806Z,98913.83
2019-02-25T01:27:41.520Z,98914.05
2019-02-25T01:29:19.014Z,98918.51
2019-02-25T01:30:54.005Z,98925.72
2019-02-25T01:32:30.213Z,98926.35
2019-02-25T01:34:08.750Z,98923.36
2019-02-25T01:35:44.449Z,98925.67
2019-02-25T01:37:22.760Z,98932.70
2019-02-25T01:38:57.934Z,98923.27
2019-02-25T01:40:33.642Z,98925.25
2019-02-25T01:42:10.670Z,98919.47
2019-02-25T01:43:47.944Z,98918.83
2019-02-25T01:45:24.048Z,98912.94
2019-02-25T01:47:02.234Z,98913.66
2019-02-25T01:48:39.194Z,98909.22
2019-02-25T01:50:16.217Z,98906.69
2019-02-25T01:52:07.519Z,98897.24
2019-02-25T01:53:50.715Z,98900.73
2019-02-25T01:55:35.593Z,98900.48
2019-02-25T01:57:13.658Z,98901.34
2019-02-25T01:58:54.243Z,98901.52
2019-02-25T02:00:32.475Z,98893.48
2019-02-25T02:02:09.841Z,98886.03
2019-02-25T02:03:45.182Z,98883.30
2019-02-25T02:05:24.339Z,98878.70
2019-02-25T02:07:01.368Z,98885.30
2019-02-25T02:08:39.859Z,98874.04
2019-02-25T02:10:18.809Z,98872.03
2019-02-25T02:11:54.379Z,98867.05
2019-02-25T02:13:30.242Z,98871.91
2019-02-25T02:15:14.371Z,98872.16
2019-02-25T02:16:49.772Z,98869.98
2019-02-25T02:18:27.936Z,98877.03
2019-02-25T02:20:03.116Z,98879.61
2019-02-25T02:21:39.109Z,98884.02
2019-02-25T02:23:16.417Z,98889.09
2019-02-25T02:24:51.589Z,98892.83
2019-02-25T02:26:26.801Z,98889.44
2019-02-25T02:28:04.888Z,98888.30
2019-02-25T02:29:40.735Z,98883.08
2019-02-25T02:31:16.716Z,98884.59
2019-02-25T02:32:52.174Z,98881.81
2019-02-25T02:34:28.146Z,98883.98
2019-02-25T02:36:04.479Z,98886.13
2019-02-25T02:37:40.922Z,98889.80
2019-02-25T02:39:21.713Z,98884.33
2019-02-25T02:40:56.819Z,98890.36
2019-02-25T02:42:33.268Z,98890.48
2019-02-25T02:44:09.183Z,98898.05
2019-02-25T02:46:01.001Z,98898.98
2019-02-25T02:48:01.165Z,98899.84
2019-02-25T02:49:36.369Z,98898.95
2019-02-25T02:51:11.593Z,98900.03
2019-02-25T02:52:47.626Z,98897.34
2019-02-25T02:54:23.234Z,98892.27
2019-02-25T02:56:03.932Z,98895.08
2019-02-25T02:57:42.525Z,98886.39
2019-02-25T02:59:18.243Z,98884.20
2019-02-25T03:00:56.033Z,98886.67
2019-02-25T03:02:33.403Z,98885.88
2019-02-25T03:04:09.253Z,98883.13
2019-02-25T03:05:45.719Z,98880.08
2019-02-25T03:07:23.722Z,98885.71
2019-02-25T03:09:01.193Z,98874.20
2019-02-25T03:10:41.174Z,98876.91
2019-02-25T03:12:19.199Z,98873.30
2019-02-25T03:13:55.862Z,98875.21
2019-02-25T03:15:36.056Z,98879.39
2019-02-25T03:17:11.415Z,98884.03
2019-02-25T03:18:47.477Z,98886.00
2019-02-25T03:20:23.791Z,98886.80
2019-02-25T03:22:01.339Z,98884.03
2019-02-25T03:23:38.246Z,98885.50
2019-02-25T03:25:15.192Z,98891.65
2019-02-25T03:26:51.538Z,98888.27
2019-02-25T03:28:27.065Z,98894.73
2019-02-25T03:30:05.498Z,98888.46
2019-02-25T03:31:42.019Z,98889.10
2019-02-25T03:33:17.301Z,98886.16
2019-02-25T03:34:52.590Z,98893.92
2019-02-25T03:36:28.259Z,98892.08
2019-02-25T03:38:03.452Z,98893.08
2019-02-25T03:39:39.726Z,98892.45
2019-02-25T03:41:14.813Z,98893.75
2019-02-25T03:42:49.799Z,98896.78
2019-02-25T03:44:25.203Z,98898.65
2019-02-25T03:46:03.255Z,98899.33
2019-02-25T03:47:47.187Z,98897.48
2019-02-25T03:49:23.334Z,98895.56
2019-02-25T03:50:58.418Z,98892.86
2019-02-25T03:52:33.748Z,98892.69
2019-02-25T03:54:09.173Z,98894.71
2019-02-25T03:55:44.197Z,98895.30
2019-02-25T03:57:19.353Z,98891.66
2019-02-25T03:58:54.840Z,98890.92
2019-02-25T04:00:29.938Z,98885.86
2019-02-25T04:02:19.807Z,98886.17
2019-02-25T04:03:56.521Z,98891.48
2019-02-25T04:05:32.489Z,98892.62
2019-02-25T04:07:07.633Z,98889.30
2019-02-25T04:08:42.873Z,98891.52
2019-02-25T04:10:18.123Z,98892.54
2019-02-25T04:11:53.366Z,98891.36
2019-02-25T04:13:28.362Z,98890.28
2019-02-25T04:15:05.524Z,98890.45
2019-02-25T04:16:40.854Z,98885.83
2019-02-25T04:18:19.266Z,98882.88
2019-02-25T04:19:54.421Z,98876.56
2019-02-25T04:21:31.359Z,98876.95
2019-02-25T04:23:08.333Z,98876.93
2019-02-25T04:24:43.370Z,98875.78
2019-02-25T04:26:18.658Z,98879.48
2019-02-25T04:27:54.979Z,98882.80
2019-02-25T04:29:30.374Z,98885.70
2019-02-25T04:31:06.923Z,98886.75
2019-02-25T04:32:43.499Z,98884.94
2019-02-25T04:34:21.725Z,98886.48
2019-02-25T04:35:57.944Z,98884.53
2019-02-25T04:37:36.207Z,98888.44
2019-02-25T04:39:11.700Z,98893.31
2019-02-25T04:40:46.782Z,98892.76
2019-02-25T04:42:24.627Z,98896.36
2019-02-25T04:44:00.112Z,98896.69
2019-02-25T04:45:36.442Z,98896.47
2019-02-25T04:47:12.649Z,98896.23
2019-02-25T04:48:50.044Z,98898.11
2019-02-25T04:50:27.618Z,98896.87
2019-02-25T04:52:02.871Z,98894.85
2019-02-25T04:53:39.616Z,98895.23
2019-02-25T04:55:14.984Z,98898.19
2019-02-25T04:56:50.491Z,98900.41
2019-02-25T04:58:25.638Z,98908.44
2019-02-25T05:00:10.515Z,98907.45
2019-02-25T05:01:47.309Z,98902.16
2019-02-25T05:03:22.713Z,98903.37
2019-02-25T05:04:57.764Z,98900.95
2019-02-25T05:06:37.010Z,98902.43
2019-02-25T05:08:14.648Z,98905.37
2019-02-25T05:09:49.734Z,98897.50
2019-02-25T05:11:29.669Z,98903.23
2019-02-25T05:13:06.300Z,98903.67
2019-02-25T05:14:41.910Z,98903.11
2019-02-25T05:16:17.740Z,98899.26
2019-02-25T05:17:54.758Z,98895.44
2019-02-25T05:19:30.944Z,98900.13
2019-02-25T05:21:06.714Z,98894.40
2019-02-25T05:22:42.288Z,98899.80
2019-02-25T05:24:20.454Z,98896.22
2019-02-25T05:25:55.878Z,98890.71
2019-02-25T05:27:31.462Z,98903.44
2019-02-25T05:29:06.572Z,98904.80
2019-02-25T05:30:44.557Z,98905.60
2019-02-25T05:32:19.541Z,98899.28
2019-02-25T05:33:54.714Z,98900.64
2019-02-25T05:35:29.820Z,98900.76
2019-02-25T05:37:04.982Z,98898.28
2019-02-25T05:38:40.137Z,98901.99
2019-02-25T05:40:16.421Z,98909.86
2019-02-25T05:41:51.922Z,98901.09
2019-02-25T05:43:27.101Z,98908.51
2019-02-25T05:45:03.579Z,98904.97
2019-02-25T05:46:39.633Z,98891.13
2019-02-25T05:48:17.334Z,98891.13
2019-02-25T05:49:59.828Z,98894.96
2019-02-25T05:51:41.486Z,98894.06
2019-02-25T05:53:19.169Z,98893.13
2019-02-25T05:55:08.213Z,98899.73
2019-02-25T05:56:49.329Z,98899.51
2019-02-25T05:58:26.448Z,98900.89
2019-02-25T06:00:04.913Z,98902.75
2019-02-25T06:01:40.567Z,98906.83
2019-02-25T06:03:22.575Z,98905.47
2019-02-25T06:05:00.484Z,98900.41
2019-02-25T06:06:36.027Z,98901.30
2019-02-25T06:08:12.635Z,98902.20
2019-02-25T06:09:47.649Z,98905.79
2019-02-25T06:11:22.768Z,98902.61
2019-02-25T06:12:58.176Z,98901.83
2019-02-25T06:14:33.611Z,98899.94
2019-02-25T06:16:09.135Z,98898.61
2019-02-25T06:17:47.404Z,98902.53
2019-02-25T06:19:23.658Z,98901.63
2019-02-25T06:20:59.301Z,98904.00
2019-02-25T06:22:34.566Z,98903.91
2019-02-25T06:24:09.755Z,98906.39
2019-02-25T06:25:45.226Z,98907.27
2019-02-25T06:27:30.486Z,98911.56
2019-02-25T06:29:03.016Z,98914.36
2019-02-25T06:30:44.227Z,98914.23
2019-02-25T06:32:30.088Z,98921.89
2019-02-25T06:34:06.162Z,98924.81
2019-02-25T06:35:43.217Z,98925.14
2019-02-25T06:37:24.702Z,98929.20
2019-02-25T06:39:06.169Z,98925.48
2019-02-25T06:40:41.784Z,98926.94
2019-02-25T06:42:19.544Z,98933.15
2019-02-25T06:43:57.452Z,98932.47
2019-02-25T06:45:33.799Z,98934.94
2019-02-25T06:47:12.877Z,98931.56
2019-02-25T06:48:58.968Z,98926.25
2019-02-25T06:50:34.099Z,98926.27
2019-02-25T06:52:11.997Z,98927.16
2019-02-25T06:53:51.860Z,98930.31
2019-02-25T06:55:29.903Z,98927.38
2019-02-25T06:57:07.554Z,98927.23
2019-02-25T06:58:44.392Z,98918.13
2019-02-25T07:00:20.735Z,98916.22
2019-02-25T07:01:56.397Z,98913.86
2019-02-25T07:03:33.526Z,98916.25
2019-02-25T07:05:29.799Z,98914.88
2019-02-25T07:07:23.839Z,98913.30
2019-02-25T07:09:24.589Z,98914.21
2019-02-25T07:11:07.219Z,98917.03
2019-02-25T07:13:01.525Z,98912.44
2019-02-25T07:14:56.938Z,98917.27
2019-02-25T07:16:59.467Z,98917.95
2019-02-25T07:19:09.156Z,98913.55
2019-02-25T07:20:55.303Z,98921.55
2019-02-25T07:22:49.912Z,98922.64
2019-02-25T07:24:53.054Z,98917.82
2019-02-25T07:26:43.312Z,98918.44
2019-02-25T07:28:36.599Z,98915.12
2019-02-25T07:30:44.468Z,98911.58
2019-02-25T07:32:37.169Z,98907.66
2019-02-25T07:34:23.037Z,98915.07
2019-02-25T07:36:17.761Z,98907.72
2019-02-25T07:38:09.684Z,98908.23
2019-02-25T07:40:03.180Z,98913.16
2019-02-25T07:41:55.034Z,98911.91
2019-02-25T07:43:57.287Z,98909.22
2019-02-25T07:45:58.929Z,98910.09
2019-02-25T07:47:50.289Z,98905.05
2019-02-25T07:49:51.712Z,98908.02
2019-02-25T07:51:58.961Z,98906.67
2019-02-25T07:54:06.732Z,98900.83
2019-02-25T07:55:49.438Z,98897.63
2019-02-25T07:57:47.869Z,98904.05
2019-02-25T07:59:50.173Z,98911.47
2019-02-25T08:01:57.127Z,98907.70
2019-02-25T08:03:57.914Z,98907.04
2019-02-25T08:06:07.448Z,98907.69
2019-02-25T08:08:16.275Z,98911.74
2019-02-25T08:10:13.834Z,98911.75
2019-02-25T08:12:02.539Z,98908.38
2019-02-25T08:13:59.657Z,98911.06
2019-02-25T08:15:58.658Z,98913.70
2019-02-25T08:17:57.886Z,98913.95
2019-02-25T08:19:59.628Z,98914.28
2019-02-25T08:22:00.532Z,98909.64
2019-02-25T08:23:50.071Z,98912.67
2019-02-25T08:25:46.609Z,98915.78
2019-02-25T08:27:57.219Z,98910.23
2019-02-25T08:30:16.046Z,98908.86
2019-02-25T08:32:06.540Z,98909.66
2019-02-25T08:33:55.548Z,98911.33
2019-02-25T08:36:26.260Z,98913.93
2019-02-25T08:38:27.400Z,98909.82
2019-02-25T08:41:02.018Z,98917.00
2019-02-25T08:42:44.342Z,98915.77
2019-02-25T08:44:31.481Z,98920.38
2019-02-25T08:46:22.144Z,98916.94
2019-02-25T08:48:23.698Z,98927.85
2019-02-25T08:50:07.075Z,98928.22
2019-02-25T08:51:42.634Z,98935.62
2019-02-25T08:53:17.738Z,98933.14
2019-02-25T08:54:53.908Z,98932.22
2019-02-25T08:56:29.051Z,98927.64
2019-02-25T08:58:04.040Z,98928.46
2019-02-25T08:59:39.406Z,98928.17
2019-02-25T09:01:15.538Z,98924.05
2019-02-25T09:02:51.562Z,98918.92
2019-02-25T09:04:26.623Z,98918.78
2019-02-25T09:06:04.765Z,98917.45
2019-02-25T09:07:42.743Z,98917.83
2019-02-25T09:09:19.698Z,98916.97
2019-02-25T09:10:58.816Z,98915.84
2019-02-25T09:12:42.543Z,98914.08
2019-02-25T09:14:20.229Z,98912.16
2019-02-25T09:15:58.532Z,98915.99
2019-02-25T09:17:44.501Z,98912.36
2019-02-25T09:19:22.830Z,98912.55
2019-02-25T09:20:58.248Z,98923.33
2019-02-25T09:22:35.187Z,98922.64
2019-02-25T09:24:12.862Z,98919.20
2019-02-25T09:25:53.377Z,98922.86
2019-02-25T09:27:30.470Z,98929.37
2019-02-25T09:29:06.840Z,98917.95
2019-02-25T09:30:42.862Z,98921.60
2019-02-25T09:32:21.221Z,98917.88
2019-02-25T09:33:56.616Z,98919.80
2019-02-25T09:35:37.570Z,98917.40
2019-02-25T09:37:18.200Z,98924.27
2019-02-25T09:39:02.334Z,98927.80
2019-02-25T09:40:46.573Z,98924.77
2019-02-25T09:42:24.921Z,98930.94
2019-02-25T09:44:04.757Z,98925.30
2019-02-25T09:45:43.292Z,98923.69
2019-02-25T09:47:20.513Z,98923.14
2019-02-25T09:48:57.623Z,98927.17
2019-02-25T09:50:35.591Z,98929.80
2019-02-25T09:52:15.272Z,98928.77
2019-02-25T09:53:52.000Z,98928.64
2019-02-25T09:55:35.473Z,98928.69
2019-02-25T09:57:13.319Z,98926.78
2019-02-25T09:58:52.043Z,98937.17
2019-02-25T10:00:27.594Z,98936.84
2019-02-25T10:02:02.633Z,98928.73
2019-02-25T10:03:37.811Z,98928.92
2019-02-25T10:05:13.624Z,98926.21
2019-02-25T10:06:48.834Z,98928.83
2019-02-25T10:08:26.169Z,98930.50
2019-02-25T10:10:12.700Z,98921.64
2019-02-25T10:11:58.381Z,98924.73
2019-02-25T10:13:35.909Z,98931.75
2019-02-25T10:15:14.969Z,98931.23
2019-02-25T10:16:51.491Z,98933.34
2019-02-25T10:18:27.264Z,98938.09
2019-02-25T10:20:11.608Z,98933.08
2019-02-25T10:21:47.358Z,98936.48
2019-02-25T10:23:30.034Z,98935.37
2019-02-25T10:25:06.848Z,98936.88
2019-02-25T10:26:46.227Z,98933.52
2019-02-25T10:28:35.272Z,98937.77
2019-02-25T10:30:14.832Z,98937.73
2019-02-25T10:31:55.981Z,98939.21
2019-02-25T10:33:43.934Z,98936.75
2019-02-25T10:35:27.226Z,98927.93
2019-02-25T10:37:06.501Z,98928.80
2019-02-25T10:38:41.971Z,98927.91
2019-02-25T10:40:24.042Z,98923.77
2019-02-25T10:42:03.670Z,98918.52
2019-02-25T10:43:52.852Z,98917.03
2019-02-25T10:45:31.842Z,98922.16
2019-02-25T10:47:13.529Z,98916.53
2019-02-25T10:48:51.918Z,98912.89
2019-02-25T10:50:31.184Z,98912.63
2019-02-25T10:52:12.871Z,98905.66
2019-02-25T10:53:51.528Z,98907.00
2019-02-25T10:55:36.827Z,98913.52
2019-02-25T10:57:29.188Z,98907.50
2019-02-25T10:59:08.174Z,98911.36
2019-02-25T11:00:46.311Z,98908.59
2019-02-25T11:02:26.689Z,98913.64
2019-02-25T11:04:05.897Z,98920.06
2019-02-25T11:05:43.513Z,98909.94
2019-02-25T11:07:23.272Z,98908.56
2019-02-25T11:09:10.946Z,98912.52
2019-02-25T11:11:10.302Z,98903.03
2019-02-25T11:13:03.812Z,98906.41
2019-02-25T11:14:43.591Z,98903.73
2019-02-25T11:16:28.126Z,98903.85
2019-02-25T11:18:08.699Z,98909.62
2019-02-25T11:19:50.633Z,98905.77
2019-02-25T11:21:32.932Z,98902.47
2019-02-25T11:23:26.473Z,98909.72
2019-02-25T11:25:04.244Z,98912.94
2019-02-25T11:26:53.556Z,98912.34
2019-02-25T11:28:43.823Z,98906.53
2019-02-25T11:30:33.905Z,98906.23
2019-02-25T11:32:16.848Z,98900.62
2019-02-25T11:34:10.072Z,98900.18
2019-02-25T11:36:05.885Z,98893.30
2019-02-25T11:38:01.613Z,98900.23
2019-02-25T11:39:52.699Z,98893.13
2019-02-25T11:41:53.437Z,98894.64
2019-02-25T11:43:38.738Z,98891.52
2019-02-25T11:45:19.259Z,98893.34
2019-02-25T11:46:55.545Z,98885.70
2019-02-25T11:48:38.513Z,98882.87
2019-02-25T11:50:15.597Z,98883.09
2019-02-25T11:51:53.896Z,98892.91
2019-02-25T11:53:30.480Z,98886.81
2019-02-25T11:55:10.674Z,98881.53
2019-02-25T11:56:46.394Z,98877.70
2019-02-25T11:58:24.233Z,98874.93
2019-02-25T12:00:14.378Z,98869.84
2019-02-25T12:01:59.183Z,98868.17
2019-02-25T12:03:43.784Z,98869.05
2019-02-25T12:05:40.100Z,98866.28
2019-02-25T12:07:05.666Z,98868.42
2019-02-25T12:08:56.750Z,98871.50
2019-02-25T12:10:35.567Z,98865.34
2019-02-25T12:12:19.525Z,98864.62
2019-02-25T12:14:02.254Z,98861.91
2019-02-25T12:16:04.905Z,98860.95
2019-02-25T12:17:44.928Z,98862.73
2019-02-25T12:19:26.426Z,98866.11
2019-02-25T12:21:07.520Z,98866.05
2019-02-25T12:22:43.444Z,98866.84
2019-02-25T12:24:24.131Z,98866.42
2019-02-25T12:26:06.844Z,98866.98
2019-02-25T12:27:44.353Z,98871.69
2019-02-25T12:29:22.764Z,98872.66
2019-02-25T12:31:02.506Z,98868.62
2019-02-25T12:32:38.405Z,98870.55
2019-02-25T12:34:13.460Z,98864.64
2019-02-25T12:35:48.892Z,98855.00
2019-02-25T12:37:31.667Z,98852.46
2019-02-25T12:39:08.620Z,98846.86
2019-02-25T12:41:04.276Z,98844.20
2019-02-25T12:42:41.265Z,98846.61
2019-02-25T12:44:16.395Z,98840.64
2019-02-25T12:45:52.256Z,98832.11
2019-02-25T12:47:28.070Z,98827.69
2019-02-25T12:49:06.403Z,98823.27
2019-02-25T12:50:46.909Z,98817.06
2019-02-25T12:52:22.643Z,98817.30
2019-02-25T12:54:00.024Z,98810.98
2019-02-25T12:55:34.813Z,98811.02
2019-02-25T12:57:11.751Z,98801.95
2019-02-25T12:59:05.210Z,98800.22
2019-02-25T13:00:41.115Z,98800.19
2019-02-25T13:02:20.652Z,98795.19
2019-02-25T13:03:57.800Z,98794.92
2019-02-25T13:05:34.058Z,98787.27
2019-02-25T13:07:10.955Z,98779.23
2019-02-25T13:08:47.754Z,98775.70
2019-02-25T13:10:26.380Z,98772.16
2019-02-25T13:12:07.292Z,98771.81
2019-02-25T13:13:42.474Z,98766.34
2019-02-25T13:15:18.464Z,98770.16
2019-02-25T13:16:54.257Z,98763.67
2019-02-25T13:18:37.434Z,98766.66
2019-02-25T13:20:16.531Z,98757.69
2019-02-25T13:21:56.383Z,98754.33
2019-02-25T13:23:37.624Z,98752.94
2019-02-25T13:25:13.372Z,98746.38
2019-02-25T13:26:58.083Z,98742.39
2019-02-25T13:28:49.987Z,98743.27
2019-02-25T13:30:28.656Z,98742.59
2019-02-25T13:32:30.807Z,98735.34
2019-02-25T13:34:07.987Z,98732.41
2019-02-25T13:35:43.192Z,98727.55
2019-02-25T13:37:18.616Z,98732.41
2019-02-25T13:38:54.060Z,98720.70
2019-02-25T13:40:30.068Z,98720.87
2019-02-25T13:43:53.745Z,98715.55
2019-02-25T13:45:34.627Z,98714.95
2019-02-25T13:47:09.980Z,98719.06
2019-02-25T13:48:45.700Z,98715.56
2019-02-25T13:50:46.625Z,98716.13
2019-02-25T13:52:22.482Z,98710.77
2019-02-25T13:53:59.772Z,98709.09
2019-02-25T13:55:55.849Z,98703.13
2019-02-25T13:57:31.573Z,98706.73
2019-02-25T13:59:06.737Z,98703.56
2019-02-25T14:00:44.370Z,98695.77
2019-02-25T14:02:23.499Z,98695.50
2019-02-25T14:03:59.265Z,98694.22
2019-02-25T14:05:34.918Z,98695.77
2019-02-25T14:07:12.428Z,98692.06
2019-02-25T14:08:47.772Z,98699.11
2019-02-25T14:10:25.840Z,98699.89
2019-02-25T14:12:01.989Z,98695.84
2019-02-25T14:13:38.515Z,98696.55
2019-02-25T14:15:21.459Z,98701.41
2019-02-25T14:16:59.729Z,98704.17
2019-02-25T14:18:41.310Z,98706.06
2019-02-25T14:20:32.167Z,98705.62
2019-02-25T14:22:12.077Z,98698.44
2019-02-25T14:23:48.634Z,98695.67
2019-02-25T14:28:39.509Z,98690.09
2019-02-25T14:30:22.360Z,98691.20
2019-02-25T14:31:59.043Z,98682.67
2019-02-25T14:33:35.979Z,98683.77
2019-02-25T14:35:15.229Z,98684.99
2019-02-25T14:36:57.191Z,98681.14
2019-02-25T14:38:35.394Z,98685.14
2019-02-25T14:40:16.768Z,98688.67
2019-02-25T14:41:57.191Z,98689.91
2019-02-25T14:43:37.182Z,98700.81
2019-02-25T14:45:14.682Z,98699.13
2019-02-25T14:46:47.924Z,98706.64
2019-02-25T14:48:27.834Z,98705.03
2019-02-25T14:50:26.976Z,98710.12
2019-02-25T14:52:11.427Z,98710.80
2019-02-25T14:54:00.335Z,98710.30
2019-02-25T14:55:40.701Z,98712.55
2019-02-25T14:57:17.789Z,98721.02
2019-02-25T14:58:53.604Z,98723.86
2019-02-25T15:00:35.275Z,98724.09
2019-02-25T15:02:13.669Z,98722.98
2019-02-25T15:03:51.403Z,98729.66
2019-02-25T15:05:31.669Z,98726.89
2019-02-25T15:07:08.652Z,98718.50
2019-02-25T15:08:45.093Z,98722.91
2019-02-25T15:10:29.392Z,98726.02
2019-02-25T15:12:06.757Z,98722.64
2019-02-25T15:13:49.388Z,98727.20
2019-02-25T15:15:46.247Z,98727.84
2019-02-25T15:17:24.769Z,98731.72
2019-02-25T15:19:05.892Z,98730.30
2019-02-25T15:20:45.393Z,98729.56
2019-02-25T15:22:28.299Z,98725.91
2019-02-25T15:24:06.865Z,98725.97
2019-02-25T15:25:44.696Z,98724.45
2019-02-25T15:27:26.267Z,98727.72
2019-02-25T15:29:04.895Z,98722.59
2019-02-25T15:30:42.804Z,98726.88
2019-02-25T15:32:18.459Z,98722.13
2019-02-25T15:33:56.203Z,98720.74
2019-02-25T15:35:36.633Z,98716.77
2019-02-25T15:37:13.984Z,98722.13
2019-02-25T15:38:53.177Z,98721.08
2019-02-25T15:40:29.540Z,98718.31
2019-02-25T15:42:05.044Z,98724.52
2019-02-25T15:43:40.698Z,98720.31
2019-02-25T15:45:19.924Z,98725.31
2019-02-25T15:46:57.879Z,98726.76
2019-02-25T15:48:37.309Z,98726.28
2019-02-25T15:50:14.696Z,98732.11
2019-02-25T15:51:52.855Z,98734.44
2019-02-25T15:53:34.408Z,98731.44
2019-02-25T15:55:14.953Z,98738.44
2019-02-25T15:56:52.525Z,98733.35
2019-02-25T15:58:28.034Z,98737.11
2019-02-25T16:00:09.144Z,98735.56
2019-02-25T16:01:44.505Z,98743.17
2019-02-25T16:03:22.149Z,98743.39
2019-02-25T16:04:58.640Z,98745.86
2019-02-25T16:06:37.626Z,98743.92
2019-02-25T16:08:18.967Z,98744.52
2019-02-25T16:09:54.726Z,98747.89
2019-02-25T16:11:34.839Z,98744.52
2019-02-25T16:13:14.237Z,98747.62
2019-02-25T16:15:03.456Z,98740.80
2019-02-25T16:17:10.117Z,98743.58
2019-02-25T16:18:58.317Z,98735.41
2019-02-25T16:20:35.153Z,98739.98
2019-02-25T16:22:15.501Z,98741.63
2019-02-25T16:23:53.399Z,98737.66
2019-02-25T16:25:34.359Z,98736.50
2019-02-25T16:27:32.171Z,98736.64
2019-02-25T16:29:27.535Z,98733.40
2019-02-25T16:31:12.324Z,98733.34
2019-02-25T16:32:52.639Z,98734.85
2019-02-25T16:34:27.891Z,98738.88
2019-02-25T16:36:06.212Z,98739.39
2019-02-25T16:37:48.564Z,98741.41
2019-02-25T16:39:26.645Z,98747.20
2019-02-25T16:41:15.958Z,98746.53
2019-02-25T16:42:54.979Z,98743.44
2019-02-25T16:44:31.056Z,98744.45
2019-02-25T16:46:14.082Z,98745.66
2019-02-25T16:47:49.572Z,98751.95
2019-02-25T16:49:29.151Z,98756.13
2019-02-25T16:51:12.473Z,98759.16
2019-02-25T16:52:49.375Z,98763.85
2019-02-25T16:54:29.764Z,98759.91
2019-02-25T16:56:09.484Z,98764.13
2019-02-25T16:57:48.779Z,98759.40
2019-02-25T16:59:26.095Z,98762.78
2019-02-25T17:01:10.930Z,98766.44
2019-02-25T17:02:47.850Z,98772.72
2019-02-25T17:04:25.484Z,98778.52
2019-02-25T17:06:02.427Z,98778.74
2019-02-25T17:07:40.493Z,98779.74
2019-02-25T17:09:20.541Z,98783.92
2019-02-25T17:10:57.828Z,98785.08
2019-02-25T17:12:36.038Z,98780.54
2019-02-25T17:14:14.896Z,98790.14
2019-02-25T17:15:51.495Z,98796.22
2019-02-25T17:17:34.746Z,98794.95
2019-02-25T17:19:10.861Z,98792.67
2019-02-25T17:20:55.340Z,98792.41
2019-02-25T17:22:33.616Z,98802.84
2019-02-25T17:24:09.564Z,98796.25
2019-02-25T17:25:50.778Z,98805.05
2019-02-25T17:27:31.258Z,98809.22
2019-02-25T17:29:06.493Z,98809.45
2019-02-25T17:30:44.559Z,98809.45
2019-02-25T17:32:24.959Z,98807.88
2019-02-25T17:34:01.285Z,98808.86
2019-02-25T17:35:43.506Z,98808.89
2019-02-25T17:37:23.064Z,98806.76
2019-02-25T17:38:58.840Z,98816.70
2019-02-25T17:40:35.066Z,98819.44
2019-02-25T17:42:12.124Z,98820.80
2019-02-25T17:43:54.886Z,98823.74
2019-02-25T17:45:36.583Z,98832.28
2019-02-25T17:47:13.114Z,98828.16
2019-02-25T17:48:48.341Z,98825.80
2019-02-25T17:50:30.787Z,98830.47
2019-02-25T17:52:12.283Z,98830.06
2019-02-25T17:53:53.161Z,98828.09
2019-02-25T17:55:34.487Z,98827.03
2019-02-25T17:57:19.662Z,98832.06
2019-02-25T17:58:59.382Z,98830.55
2019-02-25T18:00:42.268Z,98826.73
2019-02-25T18:02:23.670Z,98828.79
2019-02-25T18:04:04.485Z,98830.05
2019-02-25T18:05:45.311Z,98829.59
2019-02-25T18:07:39.895Z,98834.55
2019-02-25T18:09:20.472Z,98836.84
2019-02-25T18:11:24.643Z,98841.95
2019-02-25T18:13:07.967Z,98835.23
2019-02-25T18:14:44.865Z,98835.88
2019-02-25T18:16:21.653Z,98833.66
2019-02-25T18:18:00.082Z,98835.69
2019-02-25T18:19:35.773Z,98834.66
2019-02-25T18:21:28.162Z,98833.88
2019-02-25T18:23:04.970Z,98830.57
2019-02-25T18:24:43.911Z,98831.69
2019-02-25T18:26:19.567Z,98835.11
2019-02-25T18:28:01.413Z,98840.02
2019-02-25T18:29:48.153Z,98838.12
2019-02-25T18:31:23.706Z,98832.26
2019-02-25T18:33:02.706Z,98835.34
2019-02-25T18:34:43.356Z,98832.22
2019-02-25T18:36:23.899Z,98829.02
2019-02-25T18:38:09.739Z,98838.04
2019-02-25T18:39:52.243Z,98834.70
2019-02-25T18:41:34.185Z,98834.74
2019-02-25T18:43:11.986Z,98831.77
2019-02-25T18:44:53.421Z,98832.14
2019-02-25T18:46:33.570Z,98830.23
2019-02-25T18:48:10.581Z,98837.30
2019-02-25T18:49:52.103Z,98834.23
2019-02-25T18:51:28.373Z,98827.42
2019-02-25T18:53:09.215Z,98825.58
2019-02-25T18:54:56.772Z,98822.34
2019-02-25T18:56:33.673Z,98819.15
2019-02-25T18:58:14.311Z,98818.27
2019-02-25T18:59:59.427Z,98823.45
2019-02-25T19:01:38.008Z,98818.83
2019-02-25T19:03:20.487Z,98818.04
2019-02-25T19:05:09.537Z,98824.31
2019-02-25T19:06:47.797Z,98815.36
2019-02-25T19:08:37.247Z,98819.84
2019-02-25T19:10:18.248Z,98813.73
2019-02-25T19:11:57.904Z,98813.21
2019-02-25T19:13:49.757Z,98813.39
2019-02-25T19:15:29.770Z,98809.99
2019-02-25T19:17:22.761Z,98816.02
2019-02-25T19:19:06.388Z,98813.88
2019-02-25T19:20:50.013Z,98810.41
2019-02-25T19:22:41.816Z,98808.12
2019-02-25T19:24:16.926Z,98809.05
2019-02-25T19:25:54.237Z,98809.04
2019-02-25T19:27:35.851Z,98804.34
2019-02-25T19:29:30.198Z,98800.22
2019-02-25T19:30:55.072Z,98804.59
2019-02-25T19:32:37.714Z,98803.05
2019-02-25T19:34:17.755Z,98798.41
2019-02-25T19:35:58.912Z,98797.68
2019-02-25T19:37:38.229Z,98799.67
2019-02-25T19:39:24.038Z,98798.04
2019-02-25T19:41:17.390Z,98800.51
2019-02-25T19:42:53.703Z,98803.32
2019-02-25T19:44:34.295Z,98800.75
2019-02-25T19:46:14.358Z,98798.67
2019-02-25T19:47:48.150Z,98799.00
2019-02-25T19:49:26.682Z,98795.88